Time;durP1;ratioP1;P1;durP2;ratioP2;P2;SDS_P1;SDS_P2;PMS_P1;PMS_P2;Temp;Humidity;BMP_temperature;BMP_pressure;BME280_temperature;BME280_humidity;BME280_pressure;Samples;Min_cycle;Max_cycle;Signal;HPM_P1;HPM_P2
2022/01/23 00:01:15;;;;;;;19.23;10.02;;;;;;;;;;5013450;28;20356;-73
2022/01/23 00:03:46;;;;;;;14.88;11.23;;;;;;;;;;5012723;28;20050;-71
2022/01/23 00:06:12;;;;;;;17.10;13.00;;;;;;;;;;5012696;28;20636;-73
2022/01/23 00:08:43;;;;;;;22.52;16.02;;;;;;;;;;5006652;28;20565;-72
2022/01/23 00:11:10;;;;;;;23.90;17.00;;;;;;;;;;5008257;28;20056;-72
2022/01/23 00:17:16;;;;;;;20.85;15.65;;;;;;;;;;5012722;28;20116;-72
2022/01/23 00:19:11;;;;;;;20.75;14.60;;;;;;;;;;5004573;28;20080;-72
2022/01/23 00:21:39;;;;;;;17.38;13.10;;;;;;;;;;5010024;28;20097;-72
2022/01/23 00:32:05;;;;;;;21.92;15.15;;;;;;;;;;5013215;28;20050;-72
2022/01/23 00:34:32;;;;;;;20.85;14.27;;;;;;;;;;5011090;28;20089;-72
2022/01/23 00:36:58;;;;;;;19.45;15.57;;;;;;;;;;5012689;28;20077;-72
2022/01/23 00:39:25;;;;;;;19.83;14.35;;;;;;;;;;5010753;28;20084;-71
2022/01/23 00:41:51;;;;;;;20.10;14.73;;;;;;;;;;5012898;28;20465;-71
2022/01/23 00:44:18;;;;;;;17.70;14.32;;;;;;;;;;5009827;28;20098;-72
2022/01/23 00:46:50;;;;;;;18.83;13.77;;;;;;;;;;5012913;28;20050;-71
2022/01/23 00:49:25;;;;;;;19.42;13.40;;;;;;;;;;5008625;28;20575;-72
2022/01/23 00:51:53;;;;;;;18.40;13.85;;;;;;;;;;5013146;28;20050;-72
2022/01/23 00:54:19;;;;;;;20.83;13.10;;;;;;;;;;5007697;28;20046;-71
2022/01/23 00:56:46;;;;;;;18.05;13.82;;;;;;;;;;5012490;28;20337;-71
2022/01/23 00:59:12;;;;;;;17.15;13.02;;;;;;;;;;5012212;28;20233;-72
2022/01/23 01:01:39;;;;;;;17.98;13.20;;;;;;;;;;5011777;28;20099;-72
2022/01/23 01:04:06;;;;;;;18.42;13.65;;;;;;;;;;5010899;28;20498;-71
2022/01/23 01:06:32;;;;;;;17.30;13.05;;;;;;;;;;5011257;28;20046;-71
2022/01/23 01:09:03;;;;;;;9.73;7.80;;;;;;;;;;5009944;28;20104;-72
2022/01/23 01:11:55;;;;;;;12.57;10.02;;;;;;;;;;5010935;28;20112;-71
2022/01/23 01:17:26;;;;;;;11.82;9.48;;;;;;;;;;5008218;28;20054;-72
2022/01/23 01:33:46;;;;;;;12.30;9.18;;;;;;;;;;5007201;28;20050;-71
2022/01/23 01:39:00;;;;;;;13.87;9.83;;;;;;;;;;5003684;28;20097;-72
2022/01/23 01:41:26;;;;;;;12.05;9.45;;;;;;;;;;5011411;28;20042;-71
2022/01/23 01:43:54;;;;;;;11.90;8.77;;;;;;;;;;5004254;28;20263;-71
2022/01/23 01:46:20;;;;;;;11.75;8.80;;;;;;;;;;5009246;28;20042;-72
2022/01/23 01:48:47;;;;;;;9.63;8.65;;;;;;;;;;5010037;28;20050;-71
2022/01/23 01:51:17;;;;;;;10.68;8.77;;;;;;;;;;5011266;28;20049;-72
2022/01/23 01:53:49;;;;;;;10.10;8.27;;;;;;;;;;5009859;28;20399;-71
2022/01/23 01:56:16;;;;;;;11.02;8.75;;;;;;;;;;5011007;28;20057;-71
2022/01/23 02:15:09;;;;;;;14.35;10.57;;;;;;;;;;5011775;28;20405;-71
2022/01/23 02:50:32;;;;;;;13.68;10.30;;;;;;;;;;5011434;28;20452;-72
2022/01/23 02:55:43;;;;;;;12.00;10.02;;;;;;;;;;5011213;28;20054;-71
2022/01/23 02:58:12;;;;;;;13.05;10.80;;;;;;;;;;5011752;28;20050;-72
2022/01/23 03:00:59;;;;;;;16.25;11.48;;;;;;;;;;5014916;28;20112;-72
2022/01/23 03:03:26;;;;;;;;;;;;;;;;;;5015243;28;20464;-71
2022/01/23 03:09:11;;;;;;;12.57;9.85;;;;;;;;;;5013559;28;20100;-71
2022/01/23 03:14:38;;;;;;;11.45;9.50;;;;;;;;;;5014390;28;20082;-71
2022/01/23 03:31:08;;;;;;;12.32;9.63;;;;;;;;;;5023517;28;20156;-71
2022/01/23 03:33:36;;;;;;;11.57;9.82;;;;;;;;;;5014248;28;20155;-71
2022/01/23 03:36:03;;;;;;;12.85;10.00;;;;;;;;;;5014112;28;20050;-71
2022/01/23 03:38:30;;;;;;;11.68;9.45;;;;;;;;;;5014003;28;20100;-71
2022/01/23 03:40:56;;;;;;;13.25;9.32;;;;;;;;;;5014000;28;20053;-71
2022/01/23 03:43:29;;;;;;;12.23;10.07;;;;;;;;;;5013881;28;20490;-71
2022/01/23 03:50:52;;;;;;;12.85;9.20;;;;;;;;;;5014056;28;20092;-71
2022/01/23 03:53:18;;;;;;;11.23;10.02;;;;;;;;;;5014570;28;20054;-71
2022/01/23 03:55:45;;;;;;;12.65;9.50;;;;;;;;;;5013625;28;20448;-71
2022/01/23 03:58:11;;;;;;;10.30;8.77;;;;;;;;;;5013901;28;20050;-71
2022/01/23 04:00:38;;;;;;;11.85;8.82;;;;;;;;;;5013570;28;20050;-71
2022/01/23 04:03:05;;;;;;;12.18;9.43;;;;;;;;;;5013915;28;20050;-71
2022/01/23 04:05:31;;;;;;;11.05;8.57;;;;;;;;;;5013818;28;20062;-71
2022/01/23 04:07:57;;;;;;;13.07;9.52;;;;;;;;;;5013786;28;20547;-71
2022/01/23 04:10:25;;;;;;;11.02;9.43;;;;;;;;;;5012347;28;20103;-71
2022/01/23 04:13:00;;;;;;;12.25;9.18;;;;;;;;;;5013337;28;20112;-71
2022/01/23 05:06:46;;;;;;;12.55;9.95;;;;;;;;;;5013045;28;20049;-71
2022/01/23 05:09:14;;;;;;;11.73;9.18;;;;;;;;;;5010943;28;20042;-71
2022/01/23 05:11:46;;;;;;;;;;;;;;;;;;5013016;28;20483;-71
2022/01/23 05:14:13;;;;;;;10.98;9.05;;;;;;;;;;5012433;28;19925;-71
2022/01/23 05:16:40;;;;;;;13.40;9.02;;;;;;;;;;5012488;28;20077;-71
2022/01/23 05:19:07;;;;;;;16.65;9.82;;;;;;;;;;5010954;28;20486;-71
2022/01/23 05:24:19;;;;;;;12.07;9.13;;;;;;;;;;5012343;28;20505;-71
2022/01/23 05:26:46;;;;;;;13.18;9.80;;;;;;;;;;5012222;28;20092;-71
2022/01/23 05:29:13;;;;;;;10.77;9.48;;;;;;;;;;5012227;28;20046;-71
2022/01/23 05:31:40;;;;;;;13.70;11.25;;;;;;;;;;5012402;28;20054;-71
2022/01/23 05:34:07;;;;;;;11.15;9.45;;;;;;;;;;5012095;28;20060;-71
2022/01/23 05:36:33;;;;;;;14.27;10.27;;;;;;;;;;5012438;28;20046;-71
2022/01/23 05:39:00;;;;;;;14.60;10.13;;;;;;;;;;5011862;28;20572;-70
2022/01/23 05:41:27;;;;;;;13.55;9.20;;;;;;;;;;5012018;28;20045;-70
2022/01/23 05:43:53;;;;;;;12.43;10.33;;;;;;;;;;5012168;28;20108;-70
2022/01/23 05:46:20;;;;;;;11.75;9.52;;;;;;;;;;5011821;28;20050;-70
2022/01/23 05:48:46;;;;;;;12.77;9.90;;;;;;;;;;5011815;28;20111;-71
2022/01/23 05:51:14;;;;;;;11.45;9.52;;;;;;;;;;5012286;28;20050;-71
2022/01/23 05:53:40;;;;;;;11.88;9.27;;;;;;;;;;5011917;28;20049;-70
2022/01/23 05:56:07;;;;;;;10.20;9.07;;;;;;;;;;5011947;28;20053;-71
2022/01/23 05:58:33;;;;;;;11.38;8.90;;;;;;;;;;5010757;28;20092;-71
2022/01/23 06:01:00;;;;;;;11.40;8.95;;;;;;;;;;5011667;28;20054;-71
2022/01/23 06:03:27;;;;;;;13.25;9.82;;;;;;;;;;5011748;28;20069;-71
2022/01/23 06:05:54;;;;;;;11.52;8.57;;;;;;;;;;5011955;28;20085;-71
2022/01/23 06:08:23;;;;;;;11.70;9.13;;;;;;;;;;5011686;28;20112;-71
2022/01/23 06:10:58;;;;;;;10.25;8.38;;;;;;;;;;5011526;28;20058;-71
2022/01/23 06:13:28;;;;;;;11.80;9.77;;;;;;;;;;5011344;28;20445;-72
2022/01/23 06:15:55;;;;;;;11.05;9.02;;;;;;;;;;5011702;28;20042;-72
2022/01/23 06:18:21;;;;;;;14.57;9.45;;;;;;;;;;5011731;28;20046;-73
2022/01/23 06:20:48;;;;;;;11.77;8.98;;;;;;;;;;5011895;28;20433;-72
2022/01/23 06:23:14;;;;;;;11.65;9.55;;;;;;;;;;5011529;28;20465;-72
2022/01/23 06:25:42;;;;;;;12.10;9.93;;;;;;;;;;5010896;28;20103;-72
2022/01/23 06:28:08;;;;;;;13.50;9.25;;;;;;;;;;5011001;28;20108;-73
2022/01/23 06:30:35;;;;;;;12.57;9.82;;;;;;;;;;5011074;28;20544;-73
2022/01/23 06:33:03;;;;;;;11.48;9.88;;;;;;;;;;5011751;28;20046;-73
2022/01/23 06:35:29;;;;;;;11.65;9.98;;;;;;;;;;5014527;28;20049;-73
2022/01/23 06:37:56;;;;;;;13.13;9.77;;;;;;;;;;5015206;28;20042;-73
2022/01/23 06:40:22;;;;;;;13.43;9.73;;;;;;;;;;5014746;28;20041;-73
2022/01/23 06:42:53;;;;;;;12.85;9.18;;;;;;;;;;5014609;28;20049;-73
2022/01/23 06:45:19;;;;;;;11.18;8.77;;;;;;;;;;5014732;28;20080;-73
2022/01/23 06:47:46;;;;;;;12.48;9.45;;;;;;;;;;5014395;28;20502;-73
2022/01/23 06:50:12;;;;;;;12.18;9.55;;;;;;;;;;5014883;28;20046;-73
2022/01/23 06:52:38;;;;;;;12.27;9.32;;;;;;;;;;5014525;28;20120;-72
2022/01/23 06:55:05;;;;;;;10.43;9.32;;;;;;;;;;5014177;28;20058;-72
2022/01/23 06:57:31;;;;;;;10.75;9.23;;;;;;;;;;5014352;28;20096;-73
2022/01/23 06:59:58;;;;;;;11.15;9.18;;;;;;;;;;5014469;28;20041;-72
2022/01/23 07:02:24;;;;;;;12.45;9.40;;;;;;;;;;5014407;28;20088;-72
2022/01/23 07:04:51;;;;;;;11.38;9.65;;;;;;;;;;5014334;28;20046;-72
2022/01/23 07:07:17;;;;;;;10.93;9.07;;;;;;;;;;5014411;28;20119;-71
2022/01/23 07:09:44;;;;;;;11.80;9.30;;;;;;;;;;5013901;28;20502;-71
2022/01/23 07:12:10;;;;;;;11.85;9.48;;;;;;;;;;5014101;28;20045;-72
2022/01/23 07:14:39;;;;;;;10.73;9.60;;;;;;;;;;5013490;28;20081;-72
2022/01/23 07:17:05;;;;;;;11.73;8.82;;;;;;;;;;5014659;28;20234;-72
2022/01/23 07:19:32;;;;;;;13.00;9.73;;;;;;;;;;5013180;28;20049;-72
2022/01/23 07:21:58;;;;;;;11.82;10.15;;;;;;;;;;5013918;28;20116;-72
2022/01/23 07:24:25;;;;;;;12.98;9.95;;;;;;;;;;5014643;28;20050;-71
2022/01/23 07:26:51;;;;;;;12.07;9.93;;;;;;;;;;5014534;28;20572;-72
2022/01/23 07:29:18;;;;;;;12.63;9.68;;;;;;;;;;5014167;28;20497;-71
2022/01/23 07:31:57;;;;;;;11.60;9.47;;;;;;;;;;5014475;28;20096;-72
2022/01/23 07:34:24;;;;;;;12.32;9.15;;;;;;;;;;5014086;28;20050;-71
2022/01/23 07:36:51;;;;;;;11.93;9.02;;;;;;;;;;5013989;28;20494;-72
2022/01/23 07:39:22;;;;;;;14.18;9.95;;;;;;;;;;5014016;28;20045;-72
2022/01/23 07:41:49;;;;;;;11.18;9.50;;;;;;;;;;5012755;28;20046;-71
2022/01/23 07:44:15;;;;;;;14.10;10.13;;;;;;;;;;5013777;28;20076;-72
2022/01/23 07:46:42;;;;;;;13.10;9.77;;;;;;;;;;5012591;28;20045;-74
2022/01/23 07:49:09;;;;;;;14.93;10.73;;;;;;;;;;5013858;28;20054;-74
2022/01/23 07:51:37;;;;;;;12.07;9.48;;;;;;;;;;5013391;28;20100;-73
2022/01/23 07:54:04;;;;;;;13.25;9.90;;;;;;;;;;5011762;28;20494;-73
2022/01/23 07:56:30;;;;;;;13.10;10.27;;;;;;;;;;5013268;28;20160;-74
2022/01/23 07:58:56;;;;;;;13.00;10.43;;;;;;;;;;5013248;28;20104;-74
2022/01/23 08:01:23;;;;;;;12.15;10.25;;;;;;;;;;5013357;28;20042;-73
2022/01/23 08:03:49;;;;;;;13.75;10.68;;;;;;;;;;5011732;28;20054;-72
2022/01/23 08:06:17;;;;;;;14.05;11.23;;;;;;;;;;5013268;28;20073;-73
2022/01/23 08:08:44;;;;;;;13.88;11.30;;;;;;;;;;5012506;28;20100;-74
2022/01/23 08:11:11;;;;;;;13.48;10.88;;;;;;;;;;5013390;28;20061;-74
2022/01/23 08:13:37;;;;;;;19.63;12.98;;;;;;;;;;5013462;28;20092;-74
2022/01/23 08:16:04;;;;;;;34.80;17.92;;;;;;;;;;5013617;28;20049;-74
2022/01/23 08:18:30;;;;;;;15.70;11.73;;;;;;;;;;5013452;28;20386;-74
2022/01/23 08:20:57;;;;;;;16.75;11.85;;;;;;;;;;5013796;28;20111;-75
2022/01/23 08:23:23;;;;;;;13.55;10.80;;;;;;;;;;5011915;28;20041;-75
2022/01/23 08:25:50;;;;;;;15.80;11.50;;;;;;;;;;5012678;28;20536;-74
2022/01/23 08:28:17;;;;;;;14.35;10.63;;;;;;;;;;5012882;28;20108;-75
2022/01/23 08:30:43;;;;;;;16.38;11.75;;;;;;;;;;5013019;28;20050;-73
2022/01/23 08:33:10;;;;;;;15.20;12.07;;;;;;;;;;5012915;28;20061;-75
2022/01/23 08:35:37;;;;;;;15.27;11.95;;;;;;;;;;5013168;28;20054;-74
2022/01/23 08:38:03;;;;;;;14.13;11.48;;;;;;;;;;5012958;28;20457;-71
2022/01/23 08:43:09;;;;;;;14.55;11.07;;;;;;;;;;5011942;28;20046;-74
2022/01/23 08:45:35;;;;;;;13.60;10.70;;;;;;;;;;5010983;28;20096;-76
2022/01/23 08:48:02;;;;;;;16.98;10.77;;;;;;;;;;5011760;28;20809;-75
2022/01/23 08:50:28;;;;;;;16.38;11.20;;;;;;;;;;5012956;28;20050;-73
2022/01/23 08:52:55;;;;;;;13.05;11.05;;;;;;;;;;5013821;28;20461;-75
2022/01/23 08:55:21;;;;;;;12.05;10.15;;;;;;;;;;5012243;28;20046;-74
2022/01/23 08:57:48;;;;;;;13.65;10.00;;;;;;;;;;5012399;28;20050;-74
2022/01/23 09:00:26;;;;;;;11.93;10.00;;;;;;;;;;5012219;28;20596;-71
2022/01/23 09:02:55;;;;;;;13.75;9.88;;;;;;;;;;5010944;28;20041;-69
2022/01/23 09:05:21;;;;;;;12.48;9.98;;;;;;;;;;5012628;28;20050;-72
2022/01/23 09:07:48;;;;;;;10.93;9.38;;;;;;;;;;5011993;28;20050;-75
2022/01/23 09:10:15;;;;;;;17.13;9.38;;;;;;;;;;5012321;28;20053;-77
2022/01/23 09:12:54;;;;;;;10.63;8.93;;;;;;;;;;5012246;28;20556;-77
2022/01/23 09:15:21;;;;;;;11.02;8.52;;;;;;;;;;5012475;28;20095;-72
2022/01/23 09:17:48;;;;;;;11.02;8.45;;;;;;;;;;5010386;28;20456;-74
2022/01/23 09:20:15;;;;;;;11.57;8.80;;;;;;;;;;5012397;28;20081;-71
2022/01/23 09:22:41;;;;;;;11.97;8.80;;;;;;;;;;5012346;28;20108;-76
2022/01/23 09:25:08;;;;;;;12.40;9.20;;;;;;;;;;5011465;28;20053;-75
2022/01/23 09:27:38;;;;;;;12.82;8.77;;;;;;;;;;5011453;28;20085;-75
2022/01/23 09:30:16;;;;;;;11.02;8.70;;;;;;;;;;4994233;28;20124;-74
2022/01/23 09:32:43;;;;;;;11.38;8.25;;;;;;;;;;5011524;28;20096;-73
2022/01/23 09:35:10;;;;;;;12.20;8.50;;;;;;;;;;5011513;28;20050;-73
2022/01/23 09:37:36;;;;;;;10.52;8.25;;;;;;;;;;5011463;28;20050;-75
2022/01/23 09:40:05;;;;;;;9.98;8.13;;;;;;;;;;5011516;28;20046;-76
2022/01/23 09:42:34;;;;;;;11.55;7.30;;;;;;;;;;5011950;28;20108;-74
2022/01/23 09:45:04;;;;;;;10.43;8.10;;;;;;;;;;5012127;28;20054;-72
2022/01/23 09:47:31;;;;;;;12.25;7.90;;;;;;;;;;5012133;28;20461;-71
2022/01/23 09:50:00;;;;;;;11.53;7.87;;;;;;;;;;5012194;28;20050;-75
2022/01/23 09:52:32;;;;;;;11.55;8.60;;;;;;;;;;5010562;28;20058;-74
2022/01/23 09:55:06;;;;;;;12.73;9.15;;;;;;;;;;5011012;28;20085;-72
2022/01/23 09:57:34;;;;;;;11.43;8.35;;;;;;;;;;5011557;28;20103;-73
2022/01/23 10:00:01;;;;;;;11.65;8.55;;;;;;;;;;5010470;28;20050;-74
2022/01/23 10:02:28;;;;;;;14.02;9.13;;;;;;;;;;5008771;28;20058;-74
2022/01/23 10:05:00;;;;;;;11.18;8.70;;;;;;;;;;5010876;28;20054;-74
2022/01/23 10:07:28;;;;;;;11.68;8.75;;;;;;;;;;5011327;28;20100;-73
2022/01/23 10:10:06;;;;;;;10.20;8.77;;;;;;;;;;5013958;28;20050;-74
2022/01/23 10:12:33;;;;;;;12.32;8.98;;;;;;;;;;5013000;28;20414;-74
2022/01/23 10:14:59;;;;;;;12.73;9.43;;;;;;;;;;5012924;28;20397;-74
2022/01/23 10:17:26;;;;;;;12.02;8.65;;;;;;;;;;5014422;28;20042;-75
2022/01/23 10:19:52;;;;;;;13.20;9.35;;;;;;;;;;5015158;28;20042;-76
2022/01/23 10:22:19;;;;;;;13.07;9.43;;;;;;;;;;5015395;28;20054;-74
2022/01/23 10:24:46;;;;;;;10.50;9.23;;;;;;;;;;5015484;28;20085;-74
2022/01/23 10:27:12;;;;;;;14.85;9.20;;;;;;;;;;5013252;28;20341;-74
2022/01/23 10:29:44;;;;;;;13.85;9.75;;;;;;;;;;5014703;28;20123;-72
2022/01/23 10:32:18;;;;;;;15.18;10.77;;;;;;;;;;5014650;28;20057;-73
2022/01/23 10:34:54;;;;;;;12.45;9.77;;;;;;;;;;5014552;28;20124;-73
2022/01/23 10:37:27;;;;;;;12.70;10.13;;;;;;;;;;5014794;28;20128;-75
2022/01/23 10:39:59;;;;;;;14.00;10.98;;;;;;;;;;5012667;28;20160;-76
2022/01/23 10:51:12;;;;;;;17.08;11.88;;;;;;;;;;5013827;28;20046;-76
2022/01/23 10:53:57;;;;;;;19.42;12.77;;;;;;;;;;5013780;28;20046;-75
2022/01/23 10:56:24;;;;;;;16.45;12.07;;;;;;;;;;5013943;28;20045;-75
2022/01/23 10:58:59;;;;;;;17.63;12.90;;;;;;;;;;5013177;28;20046;-74
2022/01/23 11:01:27;;;;;;;18.30;13.15;;;;;;;;;;4996188;28;20482;-73
2022/01/23 11:04:05;;;;;;;16.77;12.65;;;;;;;;;;5013651;28;20038;-76
2022/01/23 11:06:32;;;;;;;17.00;13.30;;;;;;;;;;5014022;28;20049;-77
2022/01/23 11:09:08;;;;;;;16.80;12.75;;;;;;;;;;5012032;28;20283;-71
2022/01/23 11:11:47;;;;;;;16.58;13.30;;;;;;;;;;5013029;28;20168;-72
2022/01/23 11:19:46;;;;;;;19.30;13.98;;;;;;;;;;5013470;28;20121;-73
2022/01/23 11:22:17;;;;;;;21.05;14.32;;;;;;;;;;5013901;28;20505;-72
2022/01/23 11:24:45;;;;;;;18.02;13.77;;;;;;;;;;5014002;28;20045;-73
2022/01/23 11:27:12;;;;;;;22.40;15.10;;;;;;;;;;5012664;28;20088;-73
2022/01/23 11:29:53;;;;;;;20.20;15.48;;;;;;;;;;5010837;28;20053;-72
2022/01/23 11:32:20;;;;;;;19.35;14.90;;;;;;;;;;5011998;28;20506;-73
2022/01/23 11:34:47;;;;;;;20.55;15.27;;;;;;;;;;5014348;28;20045;-72
2022/01/23 11:37:15;;;;;;;22.95;15.38;;;;;;;;;;5012345;28;20081;-74
2022/01/23 11:39:54;;;;;;;;;;;;;;;;;;5014370;28;20050;-73
2022/01/23 11:56:28;;;;;;;24.23;17.08;;;;;;;;;;5013971;28;20057;-75
2022/01/23 11:59:19;;;;;;;21.25;16.27;;;;;;;;;;5013941;28;20046;-76
2022/01/23 12:01:46;;;;;;;26.75;17.60;;;;;;;;;;5013534;28;20096;-74
2022/01/23 12:04:18;;;;;;;24.02;17.77;;;;;;;;;;5013931;28;20041;-73
2022/01/23 12:07:05;;;;;;;25.70;18.02;;;;;;;;;;5013638;28;20104;-75
2022/01/23 12:09:31;;;;;;;24.45;18.23;;;;;;;;;;5013509;28;20119;-72
2022/01/23 12:12:02;;;;;;;25.73;18.15;;;;;;;;;;5000416;28;20096;-75
2022/01/23 12:17:03;;;;;;;24.50;18.27;;;;;;;;;;5012864;28;20462;-75
2022/01/23 12:19:31;;;;;;;25.30;17.85;;;;;;;;;;5013175;28;20108;-74
2022/01/23 12:22:17;;;;;;;25.02;18.90;;;;;;;;;;5012920;28;20111;-74
2022/01/23 12:24:48;;;;;;;24.85;18.05;;;;;;;;;;5012654;28;20041;-74
2022/01/23 12:27:17;;;;;;;25.40;19.38;;;;;;;;;;5011704;28;20099;-74
2022/01/23 12:29:44;;;;;;;25.45;19.10;;;;;;;;;;5010241;28;20050;-74
2022/01/23 12:32:26;;;;;;;26.15;19.23;;;;;;;;;;5010778;28;20045;-73
2022/01/23 12:34:54;;;;;;;27.58;18.65;;;;;;;;;;5012779;28;20054;-72
2022/01/23 12:37:20;;;;;;;27.85;18.98;;;;;;;;;;5012323;28;20092;-75
2022/01/23 12:40:07;;;;;;;28.77;19.80;;;;;;;;;;5012366;28;20108;-74
2022/01/23 12:42:52;;;;;;;25.95;18.40;;;;;;;;;;5007994;28;20108;-74
2022/01/23 12:45:54;;;;;;;28.00;19.73;;;;;;;;;;5008783;28;20107;-75
2022/01/23 12:48:28;;;;;;;27.80;19.73;;;;;;;;;;5009644;28;20050;-74
2022/01/23 12:51:01;;;;;;;26.40;19.65;;;;;;;;;;5011814;28;20046;-74
2022/01/23 12:53:43;;;;;;;26.48;18.95;;;;;;;;;;5012213;28;20046;-78
2022/01/23 12:56:12;;;;;;;24.00;18.58;;;;;;;;;;5012185;28;20104;-74
2022/01/23 12:58:39;;;;;;;23.77;18.88;;;;;;;;;;5012492;28;20096;-76
2022/01/23 13:01:08;;;;;;;20.13;16.63;;;;;;;;;;5010587;28;20080;-74
2022/01/23 13:03:37;;;;;;;23.30;17.42;;;;;;;;;;4998284;28;20050;-74
2022/01/23 13:06:07;;;;;;;23.92;17.73;;;;;;;;;;5010870;28;20127;-73
2022/01/23 13:08:37;;;;;;;22.52;17.50;;;;;;;;;;5011683;28;20112;-74
2022/01/23 13:16:27;;;;;;;24.50;19.88;;;;;;;;;;5011873;28;20045;-72
2022/01/23 13:29:56;;;;;;;25.33;19.55;;;;;;;;;;5011861;28;20123;-72
2022/01/23 13:35:26;;;;;;;23.67;18.17;;;;;;;;;;5020144;28;20074;-72
2022/01/23 13:37:57;;;;;;;29.33;21.88;;;;;;;;;;5011414;28;20046;-71
2022/01/23 13:40:28;;;;;;;26.48;20.00;;;;;;;;;;5011385;28;20490;-78
2022/01/23 13:47:58;;;;;;;27.98;20.67;;;;;;;;;;5008918;28;20050;-71
2022/01/23 13:49:16;;;;;;;28.08;19.95;;;;;;;;;;5011567;28;20045;-77
2022/01/23 14:04:33;;;;;;;27.77;20.15;;;;;;;;;;5011765;28;20268;-74
2022/01/23 14:06:59;;;;;;;32.35;21.58;;;;;;;;;;5011200;28;20061;-74
2022/01/23 14:09:26;;;;;;;28.30;20.52;;;;;;;;;;5011208;28;20092;-68
2022/01/23 14:11:53;;;;;;;28.98;20.80;;;;;;;;;;5011489;28;20109;-81
2022/01/23 14:14:21;;;;;;;24.23;18.53;;;;;;;;;;5011038;28;20181;-75
2022/01/23 14:16:48;;;;;;;;;;;;;;;;;;5011328;28;20103;-77
2022/01/23 14:19:19;;;;;;;25.75;18.23;;;;;;;;;;5011302;28;19921;-78
2022/01/23 14:21:47;;;;;;;25.75;18.40;;;;;;;;;;5009269;28;20498;-81
2022/01/23 14:24:21;;;;;;;27.58;19.48;;;;;;;;;;5010546;28;20053;-82
2022/01/23 14:27:06;;;;;;;25.65;17.58;;;;;;;;;;5009353;28;20438;-77
2022/01/23 14:29:45;;;;;;;28.33;18.55;;;;;;;;;;5011069;28;20053;-78
2022/01/23 14:32:19;;;;;;;28.95;18.98;;;;;;;;;;5008939;28;20402;-78
2022/01/23 14:34:46;;;;;;;27.55;19.70;;;;;;;;;;5010395;28;20046;-79
2022/01/23 14:37:13;;;;;;;27.73;19.45;;;;;;;;;;5010405;28;20046;-77
2022/01/23 14:39:39;;;;;;;26.25;18.38;;;;;;;;;;5009526;28;20104;-77
2022/01/23 14:42:10;;;;;;;29.73;19.98;;;;;;;;;;5009209;28;20513;-81
2022/01/23 14:44:37;;;;;;;25.45;17.65;;;;;;;;;;5009060;28;20453;-78
2022/01/23 14:47:03;;;;;;;30.30;19.98;;;;;;;;;;5010779;28;20049;-79
2022/01/23 14:49:31;;;;;;;30.92;19.02;;;;;;;;;;5010479;28;20046;-73
2022/01/23 14:52:01;;;;;;;28.90;19.38;;;;;;;;;;5010135;28;20050;-79
2022/01/23 14:54:30;;;;;;;30.25;20.08;;;;;;;;;;5010317;28;20059;-90
2022/01/23 14:57:01;;;;;;;33.03;20.55;;;;;;;;;;5013056;28;20497;-73
2022/01/23 14:59:31;;;;;;;31.48;20.05;;;;;;;;;;5014692;28;20104;-82
2022/01/23 15:01:58;;;;;;;30.95;20.40;;;;;;;;;;5012373;28;20049;-80
2022/01/23 15:04:25;;;;;;;34.50;21.60;;;;;;;;;;5001268;28;20053;-79
2022/01/23 15:06:52;;;;;;;30.33;20.30;;;;;;;;;;5010538;28;20054;-76
2022/01/23 15:09:20;;;;;;;30.83;20.02;;;;;;;;;;5013840;28;20057;-76
2022/01/23 15:11:46;;;;;;;33.38;21.38;;;;;;;;;;5013903;28;20406;-77
2022/01/23 15:14:13;;;;;;;33.30;22.13;;;;;;;;;;5013685;28;20512;-77
2022/01/23 15:16:41;;;;;;;34.00;21.53;;;;;;;;;;5012602;28;20057;-78
2022/01/23 15:19:08;;;;;;;34.92;21.83;;;;;;;;;;5013941;28;20492;-79
2022/01/23 15:21:35;;;;;;;35.72;23.08;;;;;;;;;;5014137;28;20100;-81
2022/01/23 15:24:02;;;;;;;36.47;21.43;;;;;;;;;;5014011;28;20057;-70
2022/01/23 15:26:30;;;;;;;32.28;21.05;;;;;;;;;;5013665;28;20053;-78
2022/01/23 15:28:57;;;;;;;34.80;22.23;;;;;;;;;;5013858;28;20065;-75
2022/01/23 15:31:24;;;;;;;35.50;21.60;;;;;;;;;;5013868;28;20120;-75
2022/01/23 15:33:51;;;;;;;36.50;22.27;;;;;;;;;;5011320;28;20046;-75
2022/01/23 15:36:19;;;;;;;;;;;;;;;;;;5013065;28;20061;-70
2022/01/23 15:38:46;;;;;;;36.20;21.67;;;;;;;;;;5013664;28;19921;-66
2022/01/23 15:41:13;;;;;;;36.97;22.67;;;;;;;;;;5013669;28;20064;-75
2022/01/23 15:43:39;;;;;;;36.13;21.50;;;;;;;;;;5010865;28;20346;-72
2022/01/23 15:46:06;;;;;;;33.45;21.08;;;;;;;;;;5011631;28;20053;-74
2022/01/23 15:48:33;;;;;;;37.83;22.25;;;;;;;;;;5013675;28;20045;-72
2022/01/23 15:51:00;;;;;;;37.65;23.10;;;;;;;;;;5013564;28;20401;-75
2022/01/23 15:53:26;;;;;;;37.07;22.67;;;;;;;;;;5013286;28;20054;-74
2022/01/23 15:55:53;;;;;;;37.50;22.25;;;;;;;;;;5013442;28;20046;-73
2022/01/23 15:58:19;;;;;;;35.75;22.38;;;;;;;;;;5013175;28;20074;-73
2022/01/23 16:00:46;;;;;;;38.45;22.35;;;;;;;;;;5012366;28;20046;-71
2022/01/23 16:03:13;;;;;;;36.53;21.90;;;;;;;;;;5013302;28;20108;-71
2022/01/23 16:05:39;;;;;;;36.22;22.40;;;;;;;;;;5011447;28;20129;-72
2022/01/23 16:08:06;;;;;;;32.97;21.92;;;;;;;;;;5012678;28;20484;-70
2022/01/23 16:10:32;;;;;;;35.67;21.88;;;;;;;;;;5012808;28;20062;-74
2022/01/23 16:12:59;;;;;;;44.80;25.45;;;;;;;;;;5012647;28;20096;-71
2022/01/23 16:15:25;;;;;;;38.97;21.15;;;;;;;;;;5012681;28;20073;-68
2022/01/23 16:17:52;;;;;;;37.50;22.85;;;;;;;;;;5012743;28;20496;-70
2022/01/23 16:20:19;;;;;;;43.28;25.15;;;;;;;;;;5012524;28;20046;-71
2022/01/23 16:22:46;;;;;;;42.05;24.75;;;;;;;;;;5009802;28;20054;-70
2022/01/23 16:25:14;;;;;;;34.92;21.10;;;;;;;;;;5011751;28;20046;-70
2022/01/23 16:27:40;;;;;;;;;;;;;;;;;;5008180;28;20498;-71
2022/01/23 16:30:17;;;;;;;40.90;23.42;;;;;;;;;;5011087;28;20386;-72
2022/01/23 16:32:43;;;;;;;38.60;23.23;;;;;;;;;;5010999;28;20552;-71
2022/01/23 16:35:12;;;;;;;34.00;20.83;;;;;;;;;;5013173;28;20054;-72
2022/01/23 16:37:38;;;;;;;34.08;20.77;;;;;;;;;;5011434;28;20042;-72
2022/01/23 16:40:05;;;;;;;36.08;22.38;;;;;;;;;;5012323;28;20100;-71
2022/01/23 16:42:32;;;;;;;39.47;23.20;;;;;;;;;;5006402;28;20046;-71
2022/01/23 16:44:58;;;;;;;35.75;22.55;;;;;;;;;;5009882;28;20124;-74
2022/01/23 16:47:24;;;;;;;37.33;23.13;;;;;;;;;;5007163;28;20046;-74
2022/01/23 16:49:51;;;;;;;36.47;22.13;;;;;;;;;;5012324;28;20097;-69
2022/01/23 16:52:17;;;;;;;35.55;21.15;;;;;;;;;;5006193;28;20050;-73
2022/01/23 16:54:45;;;;;;;40.40;23.75;;;;;;;;;;5006683;28;20045;-72
2022/01/23 16:57:20;;;;;;;42.45;23.75;;;;;;;;;;5009185;28;20478;-70
2022/01/23 16:59:46;;;;;;;36.30;22.48;;;;;;;;;;5012403;28;20084;-73
2022/01/23 17:02:13;;;;;;;40.53;23.60;;;;;;;;;;5011392;28;20096;-72
2022/01/23 17:04:39;;;;;;;36.78;22.23;;;;;;;;;;5011400;28;20092;-72
2022/01/23 17:07:06;;;;;;;34.33;21.77;;;;;;;;;;5009166;28;20403;-73
2022/01/23 17:09:33;;;;;;;39.13;23.55;;;;;;;;;;5010720;28;20050;-73
2022/01/23 17:12:03;;;;;;;37.90;23.70;;;;;;;;;;5010866;28;20058;-76
2022/01/23 17:14:30;;;;;;;37.25;23.17;;;;;;;;;;5011217;28;20445;-75
2022/01/23 17:16:56;;;;;;;42.50;23.80;;;;;;;;;;5010379;28;20089;-78
2022/01/23 17:19:23;;;;;;;42.50;23.40;;;;;;;;;;5011059;28;20045;-73
2022/01/23 17:21:49;;;;;;;41.88;26.05;;;;;;;;;;4996805;28;20394;-73
2022/01/23 17:24:16;;;;;;;41.30;25.88;;;;;;;;;;5011080;28;20481;-73
2022/01/23 17:26:42;;;;;;;41.13;24.17;;;;;;;;;;5010932;28;20096;-77
2022/01/23 17:29:09;;;;;;;40.55;23.52;;;;;;;;;;4995968;28;20092;-74
2022/01/23 17:31:35;;;;;;;39.72;24.95;;;;;;;;;;5010616;28;20104;-74
2022/01/23 17:34:02;;;;;;;41.47;24.10;;;;;;;;;;5008971;28;20046;-74
2022/01/23 17:36:28;;;;;;;42.38;25.15;;;;;;;;;;5007536;28;20042;-75
2022/01/23 17:38:55;;;;;;;35.75;21.52;;;;;;;;;;5009450;28;20415;-74
2022/01/23 17:41:22;;;;;;;36.00;22.13;;;;;;;;;;5010022;28;20045;-75
2022/01/23 17:43:49;;;;;;;36.83;22.30;;;;;;;;;;5008690;28;20489;-75
2022/01/23 17:46:24;;;;;;;37.22;22.52;;;;;;;;;;5010347;28;20042;-71
2022/01/23 17:49:03;;;;;;;37.55;22.35;;;;;;;;;;5008957;28;20124;-72
2022/01/23 17:51:30;;;;;;;39.55;22.45;;;;;;;;;;4992162;28;20101;-73
2022/01/23 17:54:00;;;;;;;34.00;22.00;;;;;;;;;;5010290;28;20104;-73
2022/01/23 17:56:27;;;;;;;36.28;20.55;;;;;;;;;;5011693;28;20061;-72
2022/01/23 17:58:54;;;;;;;37.10;22.87;;;;;;;;;;5007064;28;20101;-73
2022/01/23 18:01:21;;;;;;;38.70;23.40;;;;;;;;;;4999318;28;20330;-73
2022/01/23 18:03:47;;;;;;;39.35;24.63;;;;;;;;;;5008968;28;20107;-74
2022/01/23 18:06:22;;;;;;;37.93;23.30;;;;;;;;;;5011322;28;20046;-73
2022/01/23 18:08:54;;;;;;;38.47;24.08;;;;;;;;;;5010631;28;20659;-73
2022/01/23 18:11:20;;;;;;;43.38;25.17;;;;;;;;;;5009348;28;20460;-75
2022/01/23 18:13:58;;;;;;;48.97;31.30;;;;;;;;;;5003715;28;20871;-71
2022/01/23 18:16:26;;;;;;;48.40;28.40;;;;;;;;;;5010999;28;20100;-75
2022/01/23 18:18:53;;;;;;;51.80;30.23;;;;;;;;;;5011519;28;20046;-72
2022/01/23 18:21:40;;;;;;;51.35;31.65;;;;;;;;;;5010621;28;20161;-74
2022/01/23 18:24:07;;;;;;;53.72;31.05;;;;;;;;;;5010121;28;20042;-73